Time;durP1;ratioP1;P1;durP2;ratioP2;P2;SDS_P1;SDS_P2;PMS_P1;PMS_P2;Temp;Humidity;BMP_temperature;BMP_pressure;BME280_temperature;BME280_humidity;BME280_pressure;Samples;Min_cycle;Max_cycle;Signal;HPM_P1;HPM_P2
2020/12/12 00:01:32;;;;;;;10.60;8.17;;;6.00;99.90;;;;;;5092776;28;20240;-61
2020/12/12 00:03:59;;;;;;;11.83;8.50;;;5.90;99.90;;;;;;5092757;28;20204;-60
2020/12/12 00:06:25;;;;;;;11.40;8.57;;;5.90;99.90;;;;;;5092768;28;20208;-60
2020/12/12 00:08:51;;;;;;;12.10;8.80;;;5.80;99.90;;;;;;5092700;28;20672;-61
2020/12/12 00:11:19;;;;;;;12.00;8.70;;;5.90;99.90;;;;;;5092873;28;20224;-60
2020/12/12 00:13:46;;;;;;;10.90;8.37;;;5.90;99.90;;;;;;5092672;28;20211;-60
2020/12/12 00:16:15;;;;;;;11.00;7.90;;;5.90;99.90;;;;;;5093152;28;20204;-60
2020/12/12 00:18:41;;;;;;;11.67;9.13;;;5.90;99.90;;;;;;5092529;28;20204;-60
2020/12/12 00:21:07;;;;;;;13.97;9.50;;;5.90;99.90;;;;;;5092346;28;20224;-60
2020/12/12 00:23:33;;;;;;;14.63;10.10;;;5.80;99.90;;;;;;5092072;28;20240;-60
2020/12/12 00:26:00;;;;;;;11.00;8.53;;;5.80;99.90;;;;;;5092315;28;20207;-60
2020/12/12 00:28:27;;;;;;;12.90;9.73;;;5.70;99.90;;;;;;5091748;28;20251;-61
2020/12/12 00:30:53;;;;;;;13.30;9.47;;;5.60;99.90;;;;;;5092244;28;20227;-60
2020/12/12 00:33:19;;;;;;;12.60;8.97;;;5.50;99.90;;;;;;5092448;28;20703;-60
2020/12/12 00:35:45;;;;;;;11.90;8.90;;;5.50;99.90;;;;;;5091979;28;20216;-60
2020/12/12 00:38:11;;;;;;;12.63;9.23;;;5.50;99.90;;;;;;5092240;28;20213;-59
2020/12/12 00:40:37;;;;;;;13.57;9.13;;;5.50;99.90;;;;;;5092390;28;20653;-60
2020/12/12 00:43:04;;;;;;;11.40;8.40;;;5.60;99.90;;;;;;5092555;28;20215;-60
2020/12/12 00:45:31;;;;;;;14.70;9.57;;;5.60;99.90;;;;;;5092165;28;20215;-58
2020/12/12 00:47:57;;;;;;;13.60;9.60;;;5.60;99.90;;;;;;5091286;28;20756;-58
2020/12/12 00:50:23;;;;;;;13.13;9.53;;;5.50;99.90;;;;;;5091899;28;20220;-59
2020/12/12 00:52:50;;;;;;;12.27;9.27;;;5.50;99.90;;;;;;5091938;28;20281;-59
2020/12/12 00:55:16;;;;;;;14.30;9.77;;;5.50;99.90;;;;;;5091327;28;20227;-60
2020/12/12 00:57:44;;;;;;;14.63;9.03;;;5.70;99.90;;;;;;5091373;28;20212;-60
2020/12/12 01:00:11;;;;;;;12.00;8.87;;;5.70;99.90;;;;;;5091310;28;20235;-59
2020/12/12 01:02:38;;;;;;;11.63;8.77;;;5.70;99.90;;;;;;5091409;28;20203;-59
2020/12/12 01:05:05;;;;;;;11.80;8.43;;;5.70;99.90;;;;;;5090894;28;20208;-59
2020/12/12 01:07:31;;;;;;;13.43;9.70;;;5.60;99.90;;;;;;5091342;28;20231;-60
2020/12/12 01:09:57;;;;;;;12.40;9.37;;;5.60;99.90;;;;;;5090885;28;20450;-59
2020/12/12 01:12:23;;;;;;;12.43;9.43;;;5.60;99.90;;;;;;5091093;28;20208;-59
2020/12/12 01:14:49;;;;;;;12.30;9.13;;;5.50;99.90;;;;;;5090669;28;20696;-59
2020/12/12 01:17:15;;;;;;;10.73;8.47;;;5.60;99.90;;;;;;5091533;28;20205;-59
2020/12/12 01:19:42;;;;;;;14.47;9.87;;;5.60;99.90;;;;;;5091175;28;20227;-59
2020/12/12 01:22:09;;;;;;;14.20;9.67;;;5.60;99.90;;;;;;5091734;28;20212;-59
2020/12/12 01:24:35;;;;;;;15.07;11.50;;;5.60;99.90;;;;;;5090623;28;20204;-59
2020/12/12 01:27:01;;;;;;;16.47;10.20;;;5.50;99.90;;;;;;5091336;28;20220;-59
2020/12/12 01:29:27;;;;;;;11.57;8.67;;;5.40;99.90;;;;;;5090902;28;20201;-59
2020/12/12 01:31:53;;;;;;;12.27;9.10;;;5.40;99.90;;;;;;5091026;28;20629;-59
2020/12/12 01:34:20;;;;;;;14.33;9.93;;;5.30;99.90;;;;;;5090825;28;20212;-59
2020/12/12 01:36:48;;;;;;;14.50;10.47;;;5.30;99.90;;;;;;5090801;28;20204;-59
2020/12/12 01:39:14;;;;;;;12.97;9.30;;;5.30;99.90;;;;;;5090870;28;20240;-59
2020/12/12 01:41:41;;;;;;;13.93;10.07;;;5.30;99.90;;;;;;5090901;28;20661;-59
2020/12/12 01:44:07;;;;;;;12.67;9.30;;;5.30;99.90;;;;;;5090458;28;20572;-59
2020/12/12 01:46:33;;;;;;;14.77;10.37;;;5.40;99.90;;;;;;5090616;28;20215;-59
2020/12/12 01:49:00;;;;;;;14.33;10.07;;;5.40;99.90;;;;;;5091048;28;20215;-59
2020/12/12 01:51:26;;;;;;;15.73;10.30;;;5.40;99.90;;;;;;5091045;28;20224;-59
2020/12/12 01:53:57;;;;;;;14.40;10.60;;;5.60;99.90;;;;;;5090579;28;20618;-59
2020/12/12 01:56:24;;;;;;;14.27;9.90;;;5.70;99.90;;;;;;5091149;28;20266;-59
2020/12/12 01:58:51;;;;;;;13.37;10.07;;;5.70;99.90;;;;;;5090918;28;20201;-59
2020/12/12 02:01:21;;;;;;;15.40;10.23;;;5.70;99.90;;;;;;5090638;28;20235;-59
2020/12/12 02:03:50;;;;;;;13.10;9.60;;;5.80;99.90;;;;;;5091409;28;20204;-59
2020/12/12 02:06:18;;;;;;;13.67;9.87;;;5.70;99.90;;;;;;5091037;28;20215;-59
2020/12/12 02:08:45;;;;;;;14.40;10.20;;;5.60;99.90;;;;;;5090603;28;20297;-59
2020/12/12 02:11:13;;;;;;;13.97;9.90;;;5.50;99.90;;;;;;5090973;28;20228;-59
2020/12/12 02:13:46;;;;;;;13.53;9.70;;;5.40;99.90;;;;;;5090208;28;20212;-58
2020/12/12 02:16:12;;;;;;;13.43;10.20;;;5.30;99.90;;;;;;5090613;28;20200;-59
2020/12/12 02:18:39;;;;;;;14.00;10.57;;;5.20;99.90;;;;;;5090265;28;20223;-58
2020/12/12 02:21:07;;;;;;;13.93;10.00;;;5.10;99.90;;;;;;5090342;28;20252;-58
2020/12/12 02:23:34;;;;;;;13.87;10.40;;;5.00;99.90;;;;;;5090117;28;20248;-58
2020/12/12 02:26:00;;;;;;;14.20;10.27;;;4.90;99.90;;;;;;5090379;28;20208;-59
2020/12/12 02:28:30;;;;;;;14.80;10.47;;;4.80;99.90;;;;;;5089857;28;20232;-58
2020/12/12 02:30:57;;;;;;;14.93;9.87;;;4.80;99.90;;;;;;5090341;28;20224;-58
2020/12/12 02:33:23;;;;;;;15.93;10.67;;;4.70;99.90;;;;;;5090080;28;20208;-58
2020/12/12 02:35:49;;;;;;;16.87;10.60;;;4.70;99.90;;;;;;5090400;28;20215;-58
2020/12/12 02:38:15;;;;;;;16.07;10.77;;;4.70;99.90;;;;;;5093551;28;20196;-58
2020/12/12 02:40:42;;;;;;;16.53;11.30;;;4.70;99.90;;;;;;5093995;28;20224;-59
2020/12/12 02:43:12;;;;;;;16.27;11.10;;;4.70;99.90;;;;;;5093866;28;20254;-59
2020/12/12 02:45:39;;;;;;;15.53;10.70;;;4.70;99.90;;;;;;5093546;28;20211;-59
2020/12/12 02:48:05;;;;;;;17.90;12.53;;;4.60;99.90;;;;;;5093331;28;20592;-59
2020/12/12 02:50:32;;;;;;;17.57;11.80;;;4.60;99.90;;;;;;5093551;28;20224;-59
2020/12/12 02:52:59;;;;;;;15.87;11.50;;;4.60;99.90;;;;;;5093582;28;20212;-59
2020/12/12 02:55:25;;;;;;;16.67;11.97;;;4.60;99.90;;;;;;5093110;28;20242;-59
2020/12/12 02:57:52;;;;;;;16.40;11.93;;;4.60;99.90;;;;;;5093352;28;20230;-59
2020/12/12 03:00:20;;;;;;;16.40;11.77;;;4.60;99.90;;;;;;5093958;28;20247;-59
2020/12/12 03:02:47;;;;;;;16.20;11.50;;;4.70;99.90;;;;;;5093767;28;20208;-59
2020/12/12 03:05:13;;;;;;;15.60;10.87;;;4.70;99.90;;;;;;5092962;28;20219;-59
2020/12/12 03:07:39;;;;;;;17.37;11.57;;;4.70;99.90;;;;;;5093013;28;20596;-59
2020/12/12 03:10:07;;;;;;;14.50;10.90;;;4.70;99.90;;;;;;5093108;28;20225;-59
2020/12/12 03:12:33;;;;;;;16.70;11.67;;;4.70;99.90;;;;;;5093325;28;20249;-59
2020/12/12 03:15:01;;;;;;;16.10;11.33;;;4.70;99.90;;;;;;5093030;28;20204;-59
2020/12/12 03:17:27;;;;;;;17.20;11.77;;;4.80;99.90;;;;;;5093181;28;20261;-59
2020/12/12 03:19:53;;;;;;;16.63;12.07;;;4.90;99.90;;;;;;5092416;28;20237;-59
2020/12/12 03:22:19;;;;;;;15.90;11.73;;;5.00;99.90;;;;;;5093443;28;20204;-59
2020/12/12 03:24:46;;;;;;;16.80;11.77;;;5.10;99.90;;;;;;5092506;28;20215;-59
2020/12/12 03:27:12;;;;;;;16.33;11.23;;;5.10;99.90;;;;;;5092825;28;20256;-59
2020/12/12 03:29:38;;;;;;;16.00;12.07;;;5.20;99.90;;;;;;5092601;28;20207;-59
2020/12/12 03:32:06;;;;;;;17.03;11.83;;;5.10;99.90;;;;;;5092806;28;20208;-59
2020/12/12 03:34:32;;;;;;;17.00;12.07;;;5.10;99.90;;;;;;5092278;28;20208;-59
2020/12/12 03:36:59;;;;;;;16.00;11.00;;;5.20;99.90;;;;;;5092578;28;20277;-59
2020/12/12 03:39:25;;;;;;;17.03;12.03;;;5.20;99.90;;;;;;5092368;28;20215;-59
2020/12/12 03:41:51;;;;;;;14.90;10.80;;;5.30;99.90;;;;;;5092643;28;20204;-59
2020/12/12 03:44:17;;;;;;;16.70;11.67;;;5.30;99.90;;;;;;5092296;28;20208;-59
2020/12/12 03:46:43;;;;;;;17.27;12.17;;;5.40;99.90;;;;;;5092131;28;20208;-59
2020/12/12 03:49:10;;;;;;;15.53;11.10;;;5.30;99.90;;;;;;5091994;28;20208;-59
2020/12/12 03:51:36;;;;;;;15.30;11.27;;;5.30;99.90;;;;;;5092136;28;20224;-60
2020/12/12 03:54:03;;;;;;;16.90;11.43;;;5.30;99.90;;;;;;5092442;28;20625;-59
2020/12/12 03:56:29;;;;;;;15.97;11.10;;;5.30;99.90;;;;;;5092614;28;20230;-59
2020/12/12 03:58:55;;;;;;;14.63;10.33;;;5.40;99.90;;;;;;5092347;28;20208;-59
2020/12/12 04:01:21;;;;;;;16.07;11.27;;;5.50;99.90;;;;;;5092181;28;20228;-59
2020/12/12 04:03:47;;;;;;;14.70;11.30;;;5.40;99.90;;;;;;5091981;28;20575;-59
2020/12/12 04:06:14;;;;;;;14.57;11.03;;;5.50;99.90;;;;;;5092076;28;20600;-59
2020/12/12 04:08:41;;;;;;;14.13;10.70;;;5.60;99.90;;;;;;5091708;28;20231;-59
2020/12/12 04:11:07;;;;;;;16.13;11.50;;;5.70;99.90;;;;;;5092057;28;20228;-59
2020/12/12 04:13:33;;;;;;;15.70;11.13;;;5.70;99.90;;;;;;5091710;28;20221;-60
2020/12/12 04:15:59;;;;;;;16.47;11.07;;;5.90;99.90;;;;;;5092249;28;20205;-59
2020/12/12 04:18:26;;;;;;;14.00;10.43;;;5.90;99.90;;;;;;5091904;28;20200;-59
2020/12/12 04:20:52;;;;;;;14.50;10.70;;;6.00;99.90;;;;;;5091927;28;20228;-59
2020/12/12 04:23:19;;;;;;;14.83;10.90;;;6.10;99.90;;;;;;5092392;28;20211;-59
2020/12/12 04:25:45;;;;;;;13.80;10.77;;;6.10;99.90;;;;;;5091894;28;20212;-59
2020/12/12 04:28:11;;;;;;;14.63;11.03;;;6.10;99.90;;;;;;5091484;28;20231;-59
2020/12/12 04:30:37;;;;;;;16.30;11.43;;;6.10;99.90;;;;;;5091883;28;20707;-59
2020/12/12 04:33:03;;;;;;;15.27;9.97;;;6.00;99.90;;;;;;5091639;28;20208;-59
2020/12/12 04:35:30;;;;;;;14.13;10.60;;;5.90;99.90;;;;;;5091378;28;20200;-59
2020/12/12 04:37:56;;;;;;;14.30;10.20;;;5.80;99.90;;;;;;5091646;28;20685;-59
2020/12/12 04:40:23;;;;;;;15.83;11.00;;;5.90;99.90;;;;;;5091749;28;20220;-59
2020/12/12 04:42:49;;;;;;;15.17;10.87;;;5.80;99.90;;;;;;5091653;28;20204;-61
2020/12/12 04:45:20;;;;;;;16.07;10.90;;;5.70;99.90;;;;;;5091314;28;20215;-60
2020/12/12 04:47:48;;;;;;;15.07;11.23;;;5.60;99.90;;;;;;5090947;28;20688;-59
2020/12/12 04:50:16;;;;;;;14.67;11.00;;;5.70;99.90;;;;;;5091498;28;20596;-59
2020/12/12 04:52:43;;;;;;;14.53;11.00;;;5.70;99.90;;;;;;5091592;28;20204;-59
2020/12/12 04:55:10;;;;;;;15.30;12.00;;;5.70;99.90;;;;;;5091400;28;20208;-59
2020/12/12 04:57:38;;;;;;;16.07;10.97;;;5.60;99.90;;;;;;5091335;28;20211;-59
2020/12/12 05:00:09;;;;;;;14.30;10.63;;;5.60;99.90;;;;;;5090409;28;20647;-61
2020/12/12 05:02:35;;;;;;;17.13;11.00;;;5.60;99.90;;;;;;5091284;28;20212;-59
2020/12/12 05:05:01;;;;;;;12.83;10.27;;;5.60;99.90;;;;;;5091423;28;20546;-59
2020/12/12 05:07:28;;;;;;;15.70;11.57;;;5.60;99.90;;;;;;5091559;28;20231;-59
2020/12/12 05:09:54;;;;;;;14.93;10.60;;;5.70;99.90;;;;;;5090995;28;20563;-59
2020/12/12 05:12:21;;;;;;;15.77;11.40;;;5.70;99.90;;;;;;5091206;28;20558;-59
2020/12/12 05:14:50;;;;;;;14.67;10.93;;;5.80;99.90;;;;;;5090950;28;20211;-59
2020/12/12 05:17:17;;;;;;;14.60;10.70;;;5.90;99.90;;;;;;5091217;28;20200;-59
2020/12/12 05:19:47;;;;;;;14.80;10.90;;;6.00;99.90;;;;;;5090769;28;20708;-59
2020/12/12 05:22:13;;;;;;;14.13;10.63;;;6.00;99.90;;;;;;5091161;28;20208;-60
2020/12/12 05:24:40;;;;;;;16.10;11.13;;;6.00;99.90;;;;;;5090668;28;20207;-59
2020/12/12 05:27:06;;;;;;;14.50;11.23;;;6.10;99.90;;;;;;5091394;28;20261;-59
2020/12/12 05:29:32;;;;;;;14.23;10.60;;;6.10;99.90;;;;;;5090731;28;20207;-59
2020/12/12 05:31:59;;;;;;;12.83;9.70;;;6.10;99.90;;;;;;5091264;28;20266;-59
2020/12/12 05:34:27;;;;;;;12.27;9.23;;;6.10;99.90;;;;;;5090652;28;20672;-59
2020/12/12 05:36:54;;;;;;;14.23;10.20;;;6.00;99.90;;;;;;5090939;28;20220;-59
2020/12/12 05:39:21;;;;;;;12.77;9.77;;;5.90;99.90;;;;;;5090535;28;20210;-59
2020/12/12 05:41:49;;;;;;;13.90;10.97;;;5.90;99.90;;;;;;5090705;28;20691;-59
2020/12/12 05:44:16;;;;;;;14.03;10.60;;;5.90;99.90;;;;;;5090219;28;20204;-59
2020/12/12 05:46:44;;;;;;;13.47;9.90;;;5.90;99.90;;;;;;5090498;28;20576;-60
2020/12/12 05:49:11;;;;;;;14.60;10.40;;;5.90;99.90;;;;;;5090433;28;20285;-60
2020/12/12 05:51:38;;;;;;;13.47;10.53;;;5.90;99.90;;;;;;5090567;28;20216;-62
2020/12/12 05:54:05;;;;;;;16.63;10.33;;;5.90;99.90;;;;;;5090301;28;20692;-59
2020/12/12 05:56:32;;;;;;;13.20;10.23;;;6.00;99.90;;;;;;5090991;28;20261;-59
2020/12/12 05:58:59;;;;;;;13.77;10.43;;;6.00;99.90;;;;;;5090424;28;20858;-59
2020/12/12 06:01:28;;;;;;;14.60;10.73;;;6.10;99.90;;;;;;5090979;28;20259;-59
2020/12/12 06:03:58;;;;;;;13.83;9.97;;;6.10;99.90;;;;;;5090832;28;20211;-59
2020/12/12 06:06:25;;;;;;;12.83;9.40;;;5.90;99.90;;;;;;5090962;28;20208;-59
2020/12/12 06:09:03;;;;;;;14.73;10.30;;;5.90;99.90;;;;;;5090690;28;20231;-59
2020/12/12 06:11:31;;;;;;;13.33;9.97;;;6.00;99.90;;;;;;5093497;28;20708;-59
2020/12/12 06:13:59;;;;;;;14.77;10.73;;;6.10;99.90;;;;;;5094587;28;20279;-59
2020/12/12 06:16:27;;;;;;;14.27;10.53;;;6.20;99.90;;;;;;5094268;28;20240;-59
2020/12/12 06:19:08;;;;;;;14.40;10.53;;;6.30;99.90;;;;;;5094083;28;20204;-59
2020/12/12 06:21:36;;;;;;;12.90;9.80;;;6.30;99.90;;;;;;5094508;28;20228;-59
2020/12/12 06:24:05;;;;;;;14.07;10.07;;;6.40;99.90;;;;;;5094033;28;20204;-60
2020/12/12 06:27:00;;;;;;;13.93;10.13;;;6.40;99.90;;;;;;5094196;28;20212;-59
2020/12/12 06:29:29;;;;;;;14.23;10.50;;;6.40;99.90;;;;;;5076208;28;20258;-59
2020/12/12 06:31:55;;;;;;;20.63;14.63;;;6.40;99.90;;;;;;5094182;28;20227;-59
2020/12/12 06:34:41;;;;;;;28.07;19.30;;;6.40;99.90;;;;;;5094133;28;20208;-59
2020/12/12 06:37:25;;;;;;;20.23;15.93;;;6.40;99.90;;;;;;5093976;28;20200;-61
2020/12/12 06:39:51;;;;;;;16.53;11.37;;;6.30;99.90;;;;;;5093582;28;20251;-60
2020/12/12 06:42:29;;;;;;;14.57;11.20;;;6.50;99.90;;;;;;5093813;28;20210;-61
2020/12/12 06:44:55;;;;;;;14.23;10.33;;;6.60;99.90;;;;;;5093490;28;20265;-60
2020/12/12 06:47:37;;;;;;;13.60;10.83;;;6.60;99.90;;;;;;5093785;28;20208;-59
2020/12/12 06:50:13;;;;;;;14.60;10.70;;;6.50;99.90;;;;;;5093386;28;20736;-59
2020/12/12 06:52:41;;;;;;;12.73;9.93;;;6.60;99.90;;;;;;5093481;28;20725;-60
2020/12/12 06:55:09;;;;;;;13.33;10.30;;;6.80;99.90;;;;;;5093337;28;20212;-59
2020/12/12 06:57:40;;;;;;;14.17;10.60;;;6.80;99.90;;;;;;5093487;28;20204;-59
2020/12/12 07:00:09;;;;;;;13.97;10.53;;;6.80;99.90;;;;;;5093248;28;20236;-59
2020/12/12 07:02:35;;;;;;;13.43;10.53;;;6.90;99.90;;;;;;5093446;28;20249;-60
2020/12/12 07:05:17;;;;;;;14.03;11.17;;;7.00;99.90;;;;;;5093203;28;20242;-60
2020/12/12 07:07:44;;;;;;;14.43;10.80;;;7.10;99.90;;;;;;5093064;28;20667;-60
2020/12/12 07:10:11;;;;;;;15.07;9.63;;;7.20;99.90;;;;;;5093452;28;20235;-60
2020/12/12 07:12:38;;;;;;;17.17;11.13;;;7.20;99.90;;;;;;5093379;28;20204;-60
2020/12/12 07:15:04;;;;;;;10.87;8.97;;;7.20;99.90;;;;;;5093195;28;20215;-59
2020/12/12 07:17:31;;;;;;;12.10;9.10;;;7.20;99.90;;;;;;5093357;28;20215;-59
2020/12/12 07:19:58;;;;;;;12.73;9.67;;;7.30;99.90;;;;;;5092768;28;20229;-59
2020/12/12 07:22:24;;;;;;;10.80;8.07;;;7.30;99.90;;;;;;5092571;28;20298;-59
2020/12/12 07:24:51;;;;;;;13.43;10.57;;;7.40;99.90;;;;;;5093059;28;20204;-59
2020/12/12 07:27:18;;;;;;;15.23;12.07;;;7.40;99.90;;;;;;5093171;28;20497;-59
2020/12/12 07:29:44;;;;;;;12.27;9.83;;;7.40;99.90;;;;;;5093173;28;20235;-59
2020/12/12 07:32:10;;;;;;;14.30;10.33;;;7.30;99.90;;;;;;5093119;28;20200;-59
2020/12/12 07:34:36;;;;;;;13.13;9.77;;;7.30;99.90;;;;;;5092427;28;20215;-59
2020/12/12 07:37:04;;;;;;;12.20;8.50;;;7.20;99.90;;;;;;5092837;28;20201;-59
2020/12/12 07:39:31;;;;;;;11.30;8.40;;;7.20;99.90;;;;;;5092779;28;20201;-59
2020/12/12 07:42:00;;;;;;;8.93;7.20;;;7.20;99.90;;;;;;5092729;28;20205;-59
2020/12/12 07:44:28;;;;;;;11.00;8.53;;;7.30;99.90;;;;;;5092351;28;20235;-59
2020/12/12 07:46:56;;;;;;;7.87;6.50;;;7.40;99.90;;;;;;5092628;28;20551;-59
2020/12/12 07:49:22;;;;;;;8.90;6.57;;;7.50;99.90;;;;;;5091994;28;20711;-59
2020/12/12 07:51:48;;;;;;;8.90;5.20;;;7.40;99.90;;;;;;5092841;28;20200;-59
2020/12/12 07:54:17;;;;;;;9.10;6.47;;;7.50;99.90;;;;;;5092488;28;20204;-59
2020/12/12 07:56:51;;;;;;;6.30;4.93;;;7.60;99.90;;;;;;5092476;28;20215;-59
2020/12/12 07:59:20;;;;;;;5.40;4.67;;;7.50;99.90;;;;;;5092172;28;20203;-59
2020/12/12 08:01:48;;;;;;;5.27;4.40;;;7.70;99.90;;;;;;5092548;28;20345;-59
2020/12/12 08:04:18;;;;;;;7.27;5.20;;;7.80;99.90;;;;;;5092252;28;20274;-59
2020/12/12 08:06:45;;;;;;;5.23;4.73;;;7.90;99.90;;;;;;5092611;28;20212;-59
2020/12/12 08:09:11;;;;;;;4.10;3.60;;;8.00;99.90;;;;;;5091694;28;20224;-59
2020/12/12 08:11:38;;;;;;;4.03;3.33;;;8.20;99.90;;;;;;5091993;28;20239;-59
2020/12/12 08:14:05;;;;;;;4.63;3.60;;;8.20;99.90;;;;;;5091948;28;20591;-60
2020/12/12 08:16:39;;;;;;;7.87;5.53;;;8.30;99.90;;;;;;5092365;28;20266;-59
2020/12/12 08:19:06;;;;;;;16.63;12.97;;;8.50;99.90;;;;;;5091928;28;20203;-59
2020/12/12 08:21:32;;;;;;;4.33;3.50;;;8.60;99.90;;;;;;5091663;28;20223;-60
2020/12/12 08:24:00;;;;;;;3.47;2.70;;;8.70;99.90;;;;;;5092024;28;20223;-60
2020/12/12 08:26:27;;;;;;;4.97;3.70;;;8.90;99.90;;;;;;5092766;28;20227;-62
2020/12/12 08:28:53;;;;;;;2.97;2.50;;;8.80;99.90;;;;;;5092804;28;20512;-60
2020/12/12 08:31:21;;;;;;;2.57;2.33;;;8.80;99.90;;;;;;5092730;28;20281;-61
2020/12/12 08:33:53;;;;;;;2.40;2.17;;;9.00;99.90;;;;;;5092383;28;20211;-61
2020/12/12 08:36:23;;;;;;;2.83;2.20;;;9.20;99.90;;;;;;5092729;28;20215;-60
2020/12/12 08:38:52;;;;;;;2.30;2.10;;;9.30;99.90;;;;;;5092512;28;20211;-60
2020/12/12 08:41:19;;;;;;;2.37;2.13;;;9.50;99.90;;;;;;5092460;28;20612;-60
2020/12/12 08:43:45;;;;;;;3.57;2.20;;;9.60;99.90;;;;;;5092221;28;20945;-60
2020/12/12 08:46:14;;;;;;;2.50;2.07;;;9.70;99.90;;;;;;5093103;28;20232;-60
2020/12/12 08:48:41;;;;;;;2.50;2.20;;;9.90;99.90;;;;;;5093132;28;20663;-61
2020/12/12 08:51:09;;;;;;;2.57;1.93;;;10.00;99.90;;;;;;5093558;28;20235;-62
2020/12/12 08:53:37;;;;;;;2.07;1.87;;;10.10;99.90;;;;;;5092646;28;20483;-61
2020/12/12 08:56:12;;;;;;;2.60;2.40;;;10.30;99.90;;;;;;5092129;28;20215;-63
2020/12/12 08:58:46;;;;;;;2.77;2.30;;;10.50;99.90;;;;;;5091992;28;20204;-60
2020/12/12 09:01:22;;;;;;;2.60;1.93;;;10.60;99.90;;;;;;5091859;28;20232;-58
2020/12/12 09:04:05;;;;;;;3.30;2.23;;;10.50;99.90;;;;;;5091009;28;20210;-60
2020/12/12 09:06:36;;;;;;;4.17;1.97;;;10.50;99.90;;;;;;5087889;28;20215;-58
2020/12/12 09:09:14;;;;;;;3.13;2.00;;;10.50;99.90;;;;;;5091065;28;20660;-58
2020/12/12 09:11:42;;;;;;;2.20;1.90;;;10.50;99.90;;;;;;5091038;28;20228;-58
2020/12/12 09:14:09;;;;;;;2.80;2.37;;;10.60;99.90;;;;;;5090575;28;20212;-58
2020/12/12 09:16:35;;;;;;;3.10;2.80;;;10.70;99.90;;;;;;5089646;28;20437;-59
2020/12/12 09:19:01;;;;;;;2.83;2.17;;;10.60;99.90;;;;;;5086910;28;20204;-58
2020/12/12 09:21:31;;;;;;;2.83;1.90;;;10.70;99.90;;;;;;5090667;28;20243;-59
2020/12/12 09:23:58;;;;;;;2.10;1.90;;;10.80;99.90;;;;;;5090362;28;20208;-58
2020/12/12 09:26:24;;;;;;;3.00;2.27;;;10.90;99.90;;;;;;5090791;28;20204;-62
2020/12/12 09:28:50;;;;;;;3.00;2.07;;;10.90;99.90;;;;;;5090094;28;20223;-61
2020/12/12 09:31:18;;;;;;;2.20;1.90;;;10.90;99.90;;;;;;5090668;28;20224;-62
2020/12/12 09:33:44;;;;;;;2.57;2.37;;;10.90;99.90;;;;;;5090743;28;20219;-63
2020/12/12 09:36:11;;;;;;;2.00;1.80;;;10.60;99.90;;;;;;5090591;28;20636;-62
2020/12/12 09:38:38;;;;;;;2.40;1.93;;;10.50;99.90;;;;;;5090464;28;20591;-61
2020/12/12 09:41:04;;;;;;;2.27;1.80;;;10.60;99.90;;;;;;5090596;28;20227;-62
2020/12/12 09:43:31;;;;;;;4.50;2.10;;;10.60;99.90;;;;;;5090510;28;20211;-62
2020/12/12 09:45:57;;;;;;;4.57;2.03;;;10.60;99.90;;;;;;5092970;28;20207;-62
2020/12/12 09:48:23;;;;;;;2.63;2.43;;;10.70;99.90;;;;;;5094558;28;20224;-60
2020/12/12 09:50:50;;;;;;;2.77;2.10;;;10.80;99.90;;;;;;5095023;28;20227;-60
2020/12/12 09:53:16;;;;;;;5.13;1.80;;;10.80;99.90;;;;;;5095000;28;20212;-62
2020/12/12 09:55:43;;;;;;;2.77;2.10;;;10.90;99.90;;;;;;5094599;28;20204;-62
2020/12/12 09:58:09;;;;;;;4.37;2.13;;;10.90;99.90;;;;;;5094480;28;20231;-61
2020/12/12 10:00:38;;;;;;;4.87;2.63;;;10.90;99.90;;;;;;5094830;28;20735;-63
2020/12/12 10:03:05;;;;;;;3.10;2.10;;;10.80;99.90;;;;;;5094814;28;20215;-61
2020/12/12 10:05:32;;;;;;;4.73;3.63;;;10.70;99.90;;;;;;5094446;28;20215;-62
2020/12/12 10:07:59;;;;;;;2.10;1.90;;;10.70;99.90;;;;;;5094343;28;20228;-61
2020/12/12 10:10:27;;;;;;;2.80;2.00;;;10.70;99.90;;;;;;5094453;28;20247;-62
2020/12/12 10:12:54;;;;;;;2.80;2.43;;;10.60;99.90;;;;;;5094300;28;20212;-62
2020/12/12 10:15:21;;;;;;;2.20;1.80;;;10.70;99.90;;;;;;5094424;28;20214;-62
2020/12/12 10:17:48;;;;;;;2.20;2.00;;;10.70;99.90;;;;;;5094350;28;20208;-62
2020/12/12 10:20:16;;;;;;;2.67;1.90;;;10.80;99.90;;;;;;5094407;28;20231;-61
2020/12/12 10:22:42;;;;;;;1.93;1.73;;;10.80;99.90;;;;;;5094427;28;20215;-61
2020/12/12 10:25:09;;;;;;;2.70;1.70;;;10.80;99.90;;;;;;5093972;28;20204;-61
2020/12/12 10:27:36;;;;;;;3.53;2.83;;;10.80;99.90;;;;;;5094084;28;20613;-60
2020/12/12 10:30:04;;;;;;;2.10;1.90;;;10.90;99.90;;;;;;5094197;28;20224;-61
2020/12/12 10:32:31;;;;;;;2.27;1.90;;;10.90;99.90;;;;;;5094497;28;20205;-62
2020/12/12 10:34:57;;;;;;;1.93;1.77;;;10.90;99.90;;;;;;5094669;28;20211;-62
2020/12/12 10:37:23;;;;;;;2.47;2.20;;;10.80;99.90;;;;;;5094899;28;20287;-61
2020/12/12 10:39:54;;;;;;;2.13;1.90;;;10.80;99.90;;;;;;5094613;28;20236;-61
2020/12/12 10:42:20;;;;;;;3.93;2.03;;;10.90;99.90;;;;;;5094358;28;20219;-62
2020/12/12 10:44:46;;;;;;;2.40;1.93;;;10.90;99.90;;;;;;5093894;28;20212;-62
2020/12/12 10:47:13;;;;;;;2.07;1.87;;;11.10;99.90;;;;;;5094308;28;20206;-62
2020/12/12 10:49:40;;;;;;;2.23;1.90;;;11.20;99.90;;;;;;5093563;28;21895;-61
2020/12/12 10:52:06;;;;;;;4.00;2.00;;;11.10;99.90;;;;;;5094090;28;20303;-62
2020/12/12 10:54:33;;;;;;;2.83;2.20;;;11.10;99.90;;;;;;5093222;28;20283;-62
2020/12/12 10:56:59;;;;;;;2.47;2.10;;;11.20;99.90;;;;;;5092752;28;20200;-62
2020/12/12 10:59:26;;;;;;;2.73;2.10;;;11.30;99.90;;;;;;5093559;28;20231;-61
2020/12/12 11:01:54;;;;;;;2.27;2.07;;;11.30;99.90;;;;;;5094322;28;20208;-62
2020/12/12 11:04:21;;;;;;;2.97;2.20;;;11.40;99.90;;;;;;5093797;28;20295;-63
2020/12/12 11:06:47;;;;;;;3.23;2.13;;;11.30;99.90;;;;;;5093097;28;20200;-62
2020/12/12 11:09:14;;;;;;;2.30;2.07;;;11.40;99.90;;;;;;5092812;28;20606;-61
2020/12/12 11:11:40;;;;;;;3.23;1.90;;;11.40;99.90;;;;;;5093211;28;20262;-62
2020/12/12 11:14:08;;;;;;;4.63;2.40;;;11.40;99.90;;;;;;5093142;28;20211;-62
2020/12/12 11:16:35;;;;;;;2.57;1.70;;;11.50;99.90;;;;;;5093432;28;20726;-62
2020/12/12 11:19:01;;;;;;;2.03;1.80;;;11.40;99.90;;;;;;5093193;28;20201;-62
2020/12/12 11:21:29;;;;;;;3.87;2.53;;;11.40;99.90;;;;;;5093274;28;20314;-62
2020/12/12 11:23:55;;;;;;;4.93;1.93;;;11.50;99.90;;;;;;5092833;28;20231;-62
2020/12/12 11:26:23;;;;;;;2.93;1.97;;;11.60;99.90;;;;;;5093441;28;20212;-62
2020/12/12 11:28:49;;;;;;;2.10;1.60;;;11.60;99.90;;;;;;5092925;28;20223;-62
2020/12/12 11:31:16;;;;;;;2.43;1.90;;;11.70;99.90;;;;;;5093210;28;20251;-62
2020/12/12 11:33:45;;;;;;;3.83;2.10;;;11.70;99.90;;;;;;5092796;28;20243;-62
2020/12/12 11:36:28;;;;;;;2.00;1.70;;;11.80;99.90;;;;;;5092880;28;20236;-63
2020/12/12 11:38:58;;;;;;;1.63;1.53;;;11.60;99.90;;;;;;5093243;28;20211;-62
2020/12/12 11:41:40;;;;;;;2.60;1.50;;;11.70;99.90;;;;;;5093247;28;20239;-62
2020/12/12 11:44:28;;;;;;;3.93;1.90;;;11.70;99.90;;;;;;5094046;28;20212;-63
2020/12/12 11:46:55;;;;;;;2.37;1.90;;;11.60;99.90;;;;;;5094672;28;20590;-64
2020/12/12 11:49:22;;;;;;;2.47;1.60;;;11.70;99.90;;;;;;5093878;28;20231;-61
2020/12/12 11:51:48;;;;;;;3.10;1.90;;;11.70;99.90;;;;;;5094811;28;20204;-63
2020/12/12 11:54:16;;;;;;;3.60;1.93;;;11.70;99.90;;;;;;5093830;28;20208;-63
2020/12/12 11:56:42;;;;;;;4.33;2.30;;;11.80;99.90;;;;;;5092746;28;20208;-63
2020/12/12 11:59:10;;;;;;;2.60;2.00;;;11.80;99.90;;;;;;5092460;28;20329;-65
2020/12/12 12:01:37;;;;;;;4.03;2.40;;;11.80;99.90;;;;;;5092545;28;20236;-64
2020/12/12 12:04:03;;;;;;;5.73;2.50;;;11.80;99.90;;;;;;5092982;28;20208;-65
2020/12/12 12:06:29;;;;;;;4.20;2.17;;;11.70;99.90;;;;;;5093233;28;20208;-64
2020/12/12 12:09:11;;;;;;;3.13;2.43;;;11.70;99.90;;;;;;5092450;28;20228;-63
2020/12/12 12:11:39;;;;;;;3.67;2.00;;;11.70;99.90;;;;;;5093078;28;20228;-63
2020/12/12 12:14:06;;;;;;;4.13;2.13;;;11.70;99.90;;;;;;5092234;28;20685;-64
2020/12/12 12:16:36;;;;;;;3.67;1.90;;;11.80;99.90;;;;;;5093027;28;20212;-64
2020/12/12 12:19:03;;;;;;;2.20;1.90;;;11.90;99.90;;;;;;5092629;28;20200;-64
2020/12/12 12:21:30;;;;;;;2.40;1.87;;;12.00;99.90;;;;;;5092897;28;20228;-63
2020/12/12 12:23:56;;;;;;;2.83;2.00;;;12.00;99.90;;;;;;5091932;28;20221;-63
2020/12/12 12:26:22;;;;;;;2.67;2.17;;;12.00;99.90;;;;;;5092363;28;20291;-64
2020/12/12 12:28:49;;;;;;;3.20;2.00;;;12.00;99.90;;;;;;5091955;28;20695;-62
2020/12/12 12:31:20;;;;;;;2.97;2.30;;;12.00;99.90;;;;;;5092556;28;20236;-62
2020/12/12 12:33:46;;;;;;;2.90;2.40;;;12.00;99.90;;;;;;5092585;28;20236;-62
2020/12/12 12:36:12;;;;;;;3.67;2.00;;;12.00;99.90;;;;;;5092964;28;20212;-62
2020/12/12 12:38:38;;;;;;;3.10;2.10;;;11.90;99.90;;;;;;5091628;28;20253;-62
2020/12/12 12:41:05;;;;;;;4.27;2.33;;;11.90;99.90;;;;;;5092433;28;20251;-62
2020/12/12 12:43:31;;;;;;;7.10;3.00;;;12.00;99.90;;;;;;5091901;28;20215;-62
2020/12/12 12:45:58;;;;;;;3.33;2.47;;;11.90;99.90;;;;;;5092157;28;20204;-62